createdAt,value
2023-10-20T00:00:01.037Z,15.18
2023-10-20T00:02:29.172Z,14.75
2023-10-20T00:04:55.981Z,16.02
2023-10-20T00:07:22.605Z,15.98
2023-10-20T00:09:50.811Z,15.40
2023-10-20T00:12:17.300Z,16.08
2023-10-20T00:14:43.689Z,16.17
2023-10-20T00:17:10.345Z,15.43
2023-10-20T00:19:36.769Z,16.08
2023-10-20T00:22:04.430Z,16.58
2023-10-20T00:24:31.010Z,16.40
2023-10-20T00:26:58.130Z,17.45
2023-10-20T00:29:24.591Z,16.83
2023-10-20T00:31:51.493Z,16.88
2023-10-20T00:34:17.918Z,17.95
2023-10-20T00:36:44.323Z,19.15
2023-10-20T00:39:10.804Z,18.52
2023-10-20T00:41:37.433Z,18.27
2023-10-20T00:44:04.436Z,20.52
2023-10-20T00:46:31.392Z,19.95
2023-10-20T00:48:58.561Z,19.73
2023-10-20T00:51:25.757Z,20.33
2023-10-20T00:53:53.038Z,19.75
2023-10-20T00:56:19.534Z,20.55
2023-10-20T00:58:46.026Z,21.80
2023-10-20T01:01:13.082Z,19.75
2023-10-20T01:03:39.750Z,19.98
2023-10-20T01:06:06.390Z,20.75
2023-10-20T01:08:32.839Z,21.70
2023-10-20T01:10:59.369Z,21.65
2023-10-20T01:13:26.352Z,21.15
2023-10-20T01:15:53.063Z,20.63
2023-10-20T01:18:19.658Z,22.13
2023-10-20T01:20:46.182Z,22.70
2023-10-20T01:23:12.766Z,22.35
2023-10-20T01:25:39.175Z,23.05
2023-10-20T01:28:05.714Z,21.65
2023-10-20T01:30:32.187Z,21.17
2023-10-20T01:32:58.645Z,22.95
2023-10-20T01:35:25.302Z,21.23
2023-10-20T01:37:51.830Z,21.75
2023-10-20T01:40:20.612Z,22.40
2023-10-20T01:42:47.072Z,22.85
2023-10-20T01:45:13.514Z,21.67
2023-10-20T01:47:40.303Z,20.33
2023-10-20T01:50:07.819Z,20.73
2023-10-20T01:52:34.305Z,21.67
2023-10-20T01:55:00.798Z,20.92
2023-10-20T01:57:27.184Z,22.40
2023-10-20T01:59:53.585Z,21.60
2023-10-20T02:02:20.088Z,21.38
2023-10-20T02:04:46.602Z,20.50
2023-10-20T02:07:13.331Z,20.13
2023-10-20T02:09:39.723Z,20.27
2023-10-20T02:12:06.200Z,20.88
2023-10-20T02:14:33.681Z,22.15
2023-10-20T02:17:00.294Z,22.63
2023-10-20T02:19:27.610Z,21.65
2023-10-20T02:21:54.048Z,21.85
2023-10-20T02:24:20.471Z,21.00
2023-10-20T02:26:47.131Z,20.75
2023-10-20T02:29:13.683Z,19.60
2023-10-20T02:31:40.157Z,19.40
2023-10-20T02:34:06.571Z,22.55
2023-10-20T02:36:35.606Z,21.48
2023-10-20T02:39:02.872Z,22.48
2023-10-20T02:41:30.075Z,21.77
2023-10-20T02:43:56.568Z,22.48
2023-10-20T02:46:23.046Z,22.52
2023-10-20T02:48:49.465Z,22.83
2023-10-20T02:51:16.397Z,21.58
2023-10-20T02:53:43.060Z,23.25
2023-10-20T02:56:13.860Z,21.90
2023-10-20T02:58:40.741Z,22.70
2023-10-20T03:01:10.752Z,23.33
2023-10-20T03:03:38.053Z,22.33
2023-10-20T03:06:05.244Z,21.52
2023-10-20T03:08:32.157Z,19.35
2023-10-20T03:10:58.626Z,18.23
2023-10-20T03:13:25.373Z,20.10
2023-10-20T03:15:52.093Z,18.42
2023-10-20T03:18:18.571Z,19.10
2023-10-20T03:20:45.382Z,17.63
2023-10-20T03:23:11.902Z,17.67
2023-10-20T03:25:38.849Z,17.45
2023-10-20T03:28:06.467Z,17.25
2023-10-20T03:30:37.808Z,17.75
2023-10-20T03:33:04.384Z,15.80
2023-10-20T03:35:31.162Z,16.02
2023-10-20T03:37:59.948Z,15.43
2023-10-20T03:40:31.961Z,15.93
2023-10-20T03:42:59.318Z,15.50
2023-10-20T03:45:26.683Z,15.48
2023-10-20T03:47:53.208Z,14.90
2023-10-20T03:50:19.957Z,14.52
2023-10-20T03:52:49.963Z,13.10
2023-10-20T03:55:16.653Z,14.45
2023-10-20T03:57:46.100Z,15.00
2023-10-20T04:00:22.657Z,12.80
2023-10-20T04:02:49.212Z,12.43
2023-10-20T04:05:17.483Z,14.02
2023-10-20T04:07:44.350Z,12.45
2023-10-20T04:10:11.078Z,12.55
2023-10-20T04:12:38.237Z,12.25
2023-10-20T04:15:05.027Z,12.90
2023-10-20T04:17:31.485Z,12.48
2023-10-20T04:19:58.045Z,12.60
2023-10-20T04:22:24.517Z,12.32
2023-10-20T04:24:50.942Z,13.18
2023-10-20T04:27:29.109Z,12.65
2023-10-20T04:30:24.566Z,12.20
2023-10-20T04:33:09.646Z,13.77
2023-10-20T04:35:54.568Z,12.73
2023-10-20T04:38:39.392Z,12.52
2023-10-20T04:41:27.038Z,12.13
2023-10-20T04:44:11.970Z,13.90
2023-10-20T04:46:56.418Z,13.25
2023-10-20T04:49:41.414Z,14.82
2023-10-20T04:52:21.115Z,13.18
2023-10-20T04:55:06.650Z,14.25
2023-10-20T04:57:53.575Z,13.65
2023-10-20T05:00:23.444Z,12.13
2023-10-20T05:03:02.527Z,13.10
2023-10-20T05:05:36.086Z,14.32
2023-10-20T05:08:14.432Z,15.25
2023-10-20T05:10:43.243Z,14.65
2023-10-20T05:13:10.230Z,13.85
2023-10-20T05:15:44.643Z,14.45
2023-10-20T05:18:15.325Z,15.63
2023-10-20T05:20:42.739Z,14.55
2023-10-20T05:23:09.503Z,13.85
2023-10-20T05:25:35.905Z,15.48
2023-10-20T05:28:02.336Z,15.75
2023-10-20T05:30:28.873Z,14.55
2023-10-20T05:32:55.448Z,12.88
2023-10-20T05:35:22.035Z,13.10
2023-10-20T05:37:48.515Z,12.38
2023-10-20T05:40:14.906Z,12.18
2023-10-20T05:42:41.418Z,13.10
2023-10-20T05:45:11.096Z,14.50
2023-10-20T05:47:38.180Z,15.63
2023-10-20T05:50:05.315Z,13.25
2023-10-20T05:52:31.845Z,12.23
2023-10-20T05:55:00.790Z,12.02
2023-10-20T05:57:27.436Z,13.02
2023-10-20T05:59:53.885Z,14.13
2023-10-20T06:02:20.352Z,12.57
2023-10-20T06:04:46.885Z,12.60
2023-10-20T06:07:13.249Z,13.05
2023-10-20T06:09:40.724Z,11.57
2023-10-20T06:12:08.486Z,11.55
2023-10-20T06:14:37.492Z,10.57
2023-10-20T06:17:04.275Z,11.23
2023-10-20T06:19:32.430Z,11.23
2023-10-20T06:21:58.991Z,11.73
2023-10-20T06:24:25.404Z,11.18
2023-10-20T06:26:52.063Z,12.32
2023-10-20T06:29:21.319Z,10.23
2023-10-20T06:32:20.669Z,12.63
2023-10-20T06:34:48.120Z,12.25
2023-10-20T06:37:23.545Z,11.23
2023-10-20T06:39:49.953Z,11.80
2023-10-20T06:42:16.329Z,12.40
2023-10-20T06:44:43.031Z,12.18
2023-10-20T06:47:09.481Z,11.50
2023-10-20T06:49:35.872Z,10.95
2023-10-20T06:52:04.922Z,10.80
2023-10-20T06:54:31.932Z,12.32
2023-10-20T06:56:58.880Z,11.63
2023-10-20T06:59:25.775Z,12.27
2023-10-20T07:01:52.399Z,11.52
2023-10-20T07:04:18.845Z,11.68
2023-10-20T07:06:45.319Z,10.52
2023-10-20T07:09:14.943Z,11.98
2023-10-20T07:11:42.644Z,11.73
2023-10-20T07:14:09.135Z,11.93
2023-10-20T07:16:35.935Z,12.27
2023-10-20T07:19:02.805Z,12.32
2023-10-20T07:21:29.320Z,11.75
2023-10-20T07:23:56.607Z,12.15
2023-10-20T07:26:23.955Z,9.82
2023-10-20T07:28:50.369Z,11.40
2023-10-20T07:31:17.496Z,12.65
2023-10-20T07:33:44.144Z,11.27
2023-10-20T07:36:11.666Z,11.50
2023-10-20T07:38:40.107Z,12.30
2023-10-20T07:41:07.663Z,11.02
2023-10-20T07:43:34.502Z,12.35
2023-10-20T07:46:01.222Z,13.85
2023-10-20T07:48:27.807Z,11.55
2023-10-20T07:50:54.376Z,11.60
2023-10-20T07:53:20.873Z,12.25
2023-10-20T07:55:47.337Z,11.73
2023-10-20T07:58:13.750Z,11.52
2023-10-20T08:00:40.442Z,11.80
2023-10-20T08:03:07.139Z,11.77
2023-10-20T08:05:36.962Z,12.73
2023-10-20T08:08:05.241Z,12.73
2023-10-20T08:10:31.979Z,13.73
2023-10-20T08:12:58.469Z,12.35
2023-10-20T08:15:28.926Z,14.45
2023-10-20T08:17:56.920Z,12.83
2023-10-20T08:20:23.799Z,13.05
2023-10-20T08:22:50.277Z,12.98
2023-10-20T08:25:17.113Z,13.07
2023-10-20T08:27:43.531Z,15.27
2023-10-20T08:30:10.297Z,13.15
2023-10-20T08:32:36.823Z,13.32
2023-10-20T08:35:04.609Z,12.45
2023-10-20T08:37:31.068Z,12.90
2023-10-20T08:39:57.451Z,13.18
2023-10-20T08:42:24.004Z,13.70
2023-10-20T08:44:51.328Z,13.90
2023-10-20T08:47:18.440Z,14.27
2023-10-20T08:49:45.940Z,12.98
2023-10-20T08:52:13.032Z,14.18
2023-10-20T08:54:39.689Z,13.80
2023-10-20T08:57:06.688Z,14.32
2023-10-20T08:59:33.805Z,13.05
2023-10-20T09:02:00.771Z,13.18
2023-10-20T09:04:28.326Z,13.68
2023-10-20T09:06:54.999Z,15.88
2023-10-20T09:09:21.798Z,16.20
2023-10-20T09:11:48.693Z,14.35
2023-10-20T09:14:15.668Z,15.75
2023-10-20T09:16:43.371Z,15.15
2023-10-20T09:19:10.673Z,16.08
2023-10-20T09:21:38.229Z,15.00
2023-10-20T09:24:06.032Z,14.38
2023-10-20T09:26:36.607Z,13.70
2023-10-20T09:29:09.319Z,14.60
2023-10-20T09:31:37.203Z,14.95
2023-10-20T09:34:05.710Z,14.02
2023-10-20T09:36:33.024Z,15.90
2023-10-20T09:39:01.121Z,14.70
2023-10-20T09:41:28.514Z,14.50
2023-10-20T09:44:07.644Z,14.18
2023-10-20T09:46:34.625Z,12.70
2023-10-20T09:49:01.851Z,11.93
2023-10-20T09:51:28.512Z,13.23
2023-10-20T09:53:55.842Z,12.43
2023-10-20T09:56:22.722Z,12.43
2023-10-20T09:58:50.286Z,13.35
2023-10-20T10:01:17.327Z,12.93
2023-10-20T10:03:49.068Z,13.32
2023-10-20T10:06:20.209Z,11.25
2023-10-20T10:08:48.747Z,12.73
2023-10-20T10:11:19.841Z,12.15
2023-10-20T10:13:47.360Z,12.27
2023-10-20T10:16:14.898Z,11.50
2023-10-20T10:18:46.256Z,13.70
2023-10-20T10:21:23.881Z,10.85
2023-10-20T10:24:09.017Z,9.98
2023-10-20T10:26:35.634Z,9.68
2023-10-20T10:29:02.280Z,10.88
2023-10-20T10:31:36.032Z,9.55
2023-10-20T10:34:05.615Z,10.20
2023-10-20T10:36:45.417Z,10.70
2023-10-20T10:39:25.266Z,10.10
2023-10-20T10:41:53.977Z,10.82
2023-10-20T10:44:22.225Z,10.57
2023-10-20T10:46:49.288Z,9.38
2023-10-20T10:49:15.837Z,10.88
2023-10-20T10:51:50.465Z,9.02
2023-10-20T10:54:18.222Z,9.82
2023-10-20T10:56:46.042Z,9.68
2023-10-20T10:59:12.762Z,10.65
2023-10-20T11:01:40.909Z,9.65
2023-10-20T11:04:09.766Z,9.50
2023-10-20T11:06:38.591Z,9.93
2023-10-20T11:09:10.758Z,9.57
2023-10-20T11:11:39.158Z,9.40
2023-10-20T11:14:05.625Z,9.05
2023-10-20T11:16:34.557Z,9.02
2023-10-20T11:19:02.808Z,8.93
2023-10-20T11:21:31.792Z,8.85
2023-10-20T11:23:59.904Z,10.00
2023-10-20T11:26:26.690Z,8.32
2023-10-20T11:28:53.278Z,7.10
2023-10-20T11:31:20.570Z,6.63
2023-10-20T11:33:47.117Z,8.30
2023-10-20T11:36:13.609Z,6.63
2023-10-20T11:38:40.058Z,8.32
2023-10-20T11:41:06.525Z,6.63
2023-10-20T11:43:32.979Z,8.25
2023-10-20T11:45:59.402Z,6.72
2023-10-20T11:48:26.007Z,6.43
2023-10-20T11:50:52.517Z,7.30
2023-10-20T11:53:19.019Z,7.38
2023-10-20T11:55:45.910Z,6.07
2023-10-20T11:58:12.867Z,5.97
2023-10-20T12:00:42.654Z,6.53
2023-10-20T12:03:09.894Z,5.75
2023-10-20T12:05:38.385Z,5.65
2023-10-20T12:08:07.911Z,6.45
2023-10-20T12:10:34.329Z,6.82
2023-10-20T12:13:03.562Z,6.15
2023-10-20T12:15:31.498Z,5.28
2023-10-20T12:17:59.340Z,5.78
2023-10-20T12:20:26.087Z,4.68
2023-10-20T12:22:56.390Z,6.25
2023-10-20T12:25:23.185Z,5.68
2023-10-20T12:27:49.854Z,5.30
2023-10-20T12:30:16.911Z,5.53
2023-10-20T12:32:44.557Z,5.35
2023-10-20T12:35:15.231Z,5.13
2023-10-20T12:37:41.747Z,5.70
2023-10-20T12:40:10.133Z,5.25
2023-10-20T12:42:37.245Z,5.78
2023-10-20T12:45:05.685Z,5.30
2023-10-20T12:47:33.745Z,5.18
2023-10-20T12:50:00.574Z,4.75
2023-10-20T12:52:27.028Z,4.93
2023-10-20T12:54:53.895Z,4.43
2023-10-20T12:57:20.888Z,4.63
2023-10-20T12:59:47.529Z,5.10
2023-10-20T13:02:14.134Z,4.43
2023-10-20T13:04:40.848Z,5.05
2023-10-20T13:07:07.556Z,4.88
2023-10-20T13:09:34.325Z,4.80
2023-10-20T13:12:00.895Z,4.55
2023-10-20T13:14:27.848Z,4.55
2023-10-20T13:16:54.423Z,4.43
2023-10-20T13:19:21.077Z,4.68
2023-10-20T13:21:48.363Z,4.60
2023-10-20T13:24:14.785Z,4.15
2023-10-20T13:26:41.208Z,4.22
2023-10-20T13:29:07.640Z,4.10
2023-10-20T13:31:35.050Z,3.75
2023-10-20T13:34:03.306Z,4.05
2023-10-20T13:36:29.798Z,4.28
2023-10-20T13:38:56.272Z,4.20
2023-10-20T13:41:22.803Z,3.50
2023-10-20T13:43:50.095Z,3.58
2023-10-20T13:46:17.621Z,4.32
2023-10-20T13:48:44.306Z,4.13
2023-10-20T13:51:10.753Z,4.30
2023-10-20T13:53:37.358Z,3.50
2023-10-20T13:56:04.152Z,4.53
2023-10-20T13:58:30.516Z,3.92
2023-10-20T14:00:56.980Z,3.95
2023-10-20T14:03:23.504Z,4.78
2023-10-20T14:05:55.790Z,4.22
2023-10-20T14:08:22.880Z,4.70
2023-10-20T14:10:49.738Z,4.90
2023-10-20T14:13:16.760Z,5.00
2023-10-20T14:15:46.007Z,4.85
2023-10-20T14:18:13.359Z,4.72
2023-10-20T14:20:41.154Z,5.35
2023-10-20T14:23:09.245Z,4.75
2023-10-20T14:25:36.734Z,5.03
2023-10-20T14:28:03.333Z,4.82
2023-10-20T14:30:29.758Z,4.85
2023-10-20T14:32:56.234Z,5.03
2023-10-20T14:35:23.501Z,5.40
2023-10-20T14:37:50.114Z,5.15
2023-10-20T14:40:16.752Z,4.35
2023-10-20T14:42:43.197Z,4.95
2023-10-20T14:45:10.765Z,5.18
2023-10-20T14:47:37.533Z,5.55
2023-10-20T14:50:04.852Z,5.28
2023-10-20T14:52:31.372Z,4.75
2023-10-20T14:54:57.950Z,4.88
2023-10-20T14:57:24.606Z,4.88
2023-10-20T14:59:51.410Z,3.90
2023-10-20T15:02:17.905Z,3.78
2023-10-20T15:04:44.628Z,4.45
2023-10-20T15:07:11.626Z,4.07
2023-10-20T15:09:38.268Z,3.88
2023-10-20T15:12:04.911Z,3.92
2023-10-20T15:14:31.533Z,4.13
2023-10-20T15:16:58.424Z,4.72
2023-10-20T15:19:25.105Z,3.92
2023-10-20T15:21:51.613Z,4.55
2023-10-20T15:24:18.024Z,3.58
2023-10-20T15:26:46.595Z,4.63
2023-10-20T15:29:13.182Z,3.72
2023-10-20T15:31:40.738Z,3.60
2023-10-20T15:34:07.297Z,4.75
2023-10-20T15:36:45.280Z,3.80
2023-10-20T15:39:11.873Z,3.20
2023-10-20T15:41:38.356Z,3.30
2023-10-20T15:44:04.858Z,2.83
2023-10-20T15:46:31.309Z,3.35
2023-10-20T15:48:57.732Z,3.25
2023-10-20T15:51:24.186Z,3.47
2023-10-20T15:53:50.623Z,3.67
2023-10-20T15:56:17.124Z,3.33
2023-10-20T15:58:43.862Z,3.40
2023-10-20T16:01:10.969Z,3.85
2023-10-20T16:03:37.549Z,3.20
2023-10-20T16:06:06.941Z,3.50
2023-10-20T16:08:33.398Z,3.35
2023-10-20T16:10:59.851Z,3.25
2023-10-20T16:13:26.221Z,2.97
2023-10-20T16:15:52.701Z,3.03
2023-10-20T16:18:19.219Z,3.05
2023-10-20T16:20:47.062Z,3.58
2023-10-20T16:23:13.506Z,3.20
2023-10-20T16:25:39.921Z,4.07
2023-10-20T16:28:07.769Z,3.97
2023-10-20T16:30:35.835Z,4.03
2023-10-20T16:33:02.696Z,4.35
2023-10-20T16:35:29.658Z,3.22
2023-10-20T16:37:56.202Z,4.03
2023-10-20T16:40:22.587Z,3.35
2023-10-20T16:42:49.055Z,3.92
2023-10-20T16:45:16.052Z,3.92
2023-10-20T16:47:42.489Z,3.83
2023-10-20T16:50:09.008Z,3.55
2023-10-20T16:52:40.264Z,4.63
2023-10-20T16:55:06.873Z,5.35
2023-10-20T16:57:33.436Z,5.07
2023-10-20T16:59:59.862Z,4.90
2023-10-20T17:02:26.417Z,4.75
2023-10-20T17:04:52.973Z,4.38
2023-10-20T17:07:20.035Z,5.60
2023-10-20T17:09:46.574Z,4.63
2023-10-20T17:12:13.250Z,5.13
2023-10-20T17:14:39.797Z,5.13
2023-10-20T17:17:06.333Z,5.18
2023-10-20T17:19:34.010Z,4.72
2023-10-20T17:22:00.634Z,4.90
2023-10-20T17:24:27.679Z,5.05
2023-10-20T17:26:54.280Z,6.03
2023-10-20T17:29:20.734Z,4.97
2023-10-20T17:31:47.151Z,5.07
2023-10-20T17:34:14.308Z,5.65
2023-10-20T17:36:40.792Z,5.20
2023-10-20T17:39:07.570Z,5.75
2023-10-20T17:41:35.233Z,6.00
2023-10-20T17:44:01.954Z,6.13
2023-10-20T17:46:28.385Z,5.40
2023-10-20T17:48:55.367Z,6.40
2023-10-20T17:51:22.539Z,6.78
2023-10-20T17:53:49.045Z,7.43
2023-10-20T17:56:15.515Z,7.95
2023-10-20T17:58:41.947Z,9.30
2023-10-20T18:01:09.677Z,9.43
2023-10-20T18:03:44.034Z,9.40
2023-10-20T18:06:16.892Z,11.52
2023-10-20T18:08:45.888Z,11.65
2023-10-20T18:11:13.380Z,10.45
2023-10-20T18:13:44.722Z,10.55
2023-10-20T18:16:18.097Z,9.90
2023-10-20T18:18:45.733Z,9.45
2023-10-20T18:21:12.924Z,12.88
2023-10-20T18:23:40.662Z,9.55
2023-10-20T18:26:08.320Z,9.52
2023-10-20T18:28:35.164Z,9.80
2023-10-20T18:31:10.827Z,8.73
2023-10-20T18:33:37.358Z,9.18
2023-10-20T18:36:04.046Z,8.77
2023-10-20T18:38:30.527Z,8.80
2023-10-20T18:40:56.963Z,9.10
2023-10-20T18:43:23.361Z,9.38
2023-10-20T18:45:53.618Z,9.40
2023-10-20T18:48:20.177Z,9.15
2023-10-20T18:50:46.736Z,9.35
2023-10-20T18:53:13.224Z,9.48
2023-10-20T18:55:39.644Z,9.98
2023-10-20T18:58:06.449Z,11.32
2023-10-20T19:00:32.898Z,10.65
2023-10-20T19:02:59.559Z,10.00
2023-10-20T19:05:26.131Z,10.35
2023-10-20T19:07:53.480Z,11.57
2023-10-20T19:10:19.984Z,12.15
2023-10-20T19:12:47.201Z,43.10
2023-10-20T19:15:14.969Z,11.93
2023-10-20T19:17:41.633Z,14.15
2023-10-20T19:20:08.562Z,11.70
2023-10-20T19:22:34.956Z,12.15
2023-10-20T19:25:01.527Z,15.80
2023-10-20T19:27:27.886Z,11.55
2023-10-20T19:29:54.331Z,14.13
2023-10-20T19:32:20.847Z,13.02
2023-10-20T19:34:47.276Z,13.48
2023-10-20T19:37:13.669Z,15.07
2023-10-20T19:39:40.105Z,15.13
2023-10-20T19:42:06.846Z,16.23
2023-10-20T19:44:33.314Z,15.82
2023-10-20T19:46:59.770Z,17.83
2023-10-20T19:49:26.271Z,16.73
2023-10-20T19:51:52.707Z,16.65
2023-10-20T19:54:19.216Z,17.38
2023-10-20T19:56:45.837Z,17.63
2023-10-20T19:59:12.289Z,15.85
2023-10-20T20:01:39.336Z,17.25
2023-10-20T20:04:06.403Z,15.63
2023-10-20T20:06:32.946Z,14.80
2023-10-20T20:08:59.451Z,15.45
2023-10-20T20:11:25.867Z,17.30
2023-10-20T20:13:52.305Z,17.55
2023-10-20T20:16:18.931Z,16.13
2023-10-20T20:18:45.967Z,17.27
2023-10-20T20:21:12.854Z,16.33
2023-10-20T20:23:39.499Z,14.90
2023-10-20T20:26:07.462Z,15.68
2023-10-20T20:28:36.804Z,17.20
2023-10-20T20:31:03.554Z,15.30
2023-10-20T20:33:32.754Z,16.27
2023-10-20T20:35:59.762Z,17.52
2023-10-20T20:38:26.185Z,18.65
2023-10-20T20:40:52.780Z,17.75
2023-10-20T20:43:19.203Z,18.42
2023-10-20T20:45:58.036Z,19.00
2023-10-20T20:48:24.542Z,17.65
2023-10-20T20:50:51.311Z,18.90
2023-10-20T20:53:17.986Z,18.08
2023-10-20T20:55:45.516Z,19.02
2023-10-20T20:58:12.417Z,19.05
2023-10-20T21:00:41.697Z,17.73
2023-10-20T21:03:10.105Z,17.92
2023-10-20T21:05:38.068Z,18.35
2023-10-20T21:08:05.032Z,20.20
2023-10-20T21:10:31.552Z,18.77
2023-10-20T21:12:58.653Z,18.33
2023-10-20T21:15:25.235Z,18.55
2023-10-20T21:17:51.710Z,19.65
2023-10-20T21:20:18.250Z,21.38
2023-10-20T21:22:44.692Z,20.25
2023-10-20T21:25:11.158Z,18.77
2023-10-20T21:27:37.574Z,18.52
2023-10-20T21:30:04.309Z,18.00
2023-10-20T21:32:30.830Z,17.42
2023-10-20T21:34:57.288Z,18.05
2023-10-20T21:37:23.759Z,18.77
2023-10-20T21:39:50.221Z,18.95
2023-10-20T21:42:16.724Z,18.73
2023-10-20T21:44:43.250Z,18.08
2023-10-20T21:47:11.690Z,18.45
2023-10-20T21:49:38.100Z,18.45
2023-10-20T21:52:04.719Z,18.08
2023-10-20T21:54:32.211Z,19.30
2023-10-20T21:56:58.764Z,19.63
2023-10-20T21:59:25.312Z,20.10
2023-10-20T22:02:08.330Z,19.02
2023-10-20T22:04:35.937Z,20.55
2023-10-20T22:07:02.365Z,20.05
2023-10-20T22:09:34.973Z,19.88
2023-10-20T22:12:12.566Z,20.20
2023-10-20T22:14:39.059Z,21.63
2023-10-20T22:17:06.198Z,21.02
2023-10-20T22:19:32.705Z,18.25
2023-10-20T22:21:59.162Z,20.58
2023-10-20T22:24:25.542Z,20.77
2023-10-20T22:26:51.995Z,20.15
2023-10-20T22:29:18.582Z,21.05
2023-10-20T22:31:45.079Z,18.92
2023-10-20T22:34:11.513Z,17.83
2023-10-20T22:36:37.910Z,19.67
2023-10-20T22:39:04.439Z,18.40
2023-10-20T22:41:30.888Z,20.42
2023-10-20T22:43:57.296Z,22.67
2023-10-20T22:46:23.804Z,20.38
2023-10-20T22:48:50.213Z,19.77
2023-10-20T22:51:16.627Z,20.70
2023-10-20T22:53:43.129Z,22.38
2023-10-20T22:56:09.608Z,21.33
2023-10-20T22:58:36.056Z,21.60
2023-10-20T23:01:02.520Z,21.85
2023-10-20T23:03:29.149Z,21.52
2023-10-20T23:05:55.659Z,21.52
2023-10-20T23:08:22.093Z,21.13
2023-10-20T23:10:48.502Z,21.85
2023-10-20T23:13:14.939Z,20.65
2023-10-20T23:15:44.041Z,23.27
2023-10-20T23:18:10.659Z,22.80
2023-10-20T23:20:37.260Z,23.52
2023-10-20T23:23:04.261Z,22.40
2023-10-20T23:25:30.725Z,24.77
2023-10-20T23:27:57.153Z,21.38
2023-10-20T23:30:23.518Z,22.55
2023-10-20T23:32:49.977Z,22.17
2023-10-20T23:35:16.668Z,23.10
2023-10-20T23:37:43.046Z,24.02
2023-10-20T23:40:09.722Z,22.90
2023-10-20T23:42:36.505Z,23.33
2023-10-20T23:45:03.566Z,23.77
2023-10-20T23:47:30.682Z,26.10
2023-10-20T23:49:57.069Z,25.33
2023-10-20T23:52:24.096Z,25.77
2023-10-20T23:54:53.742Z,25.80
2023-10-20T23:57:20.419Z,26.55
2023-10-20T23:59:47.285Z,24.50
